Savoonga, AK

7:28 AM AKDT on September 16, 2014 (GMT -0800)
Savoonga | Change Station
CLOSE
Current Station
Airport
Location: Savoonga,
Elevation: 52 ft
Nearby Weather Stations

Elev 52 ft 63.69 °N, 170.49 °W | Updated 12 minutes ago

Overcast
Overcast
45 °F
Feels Like 38 °F
N
15
Wind Variable Wind from NE
Gusts 18 mph

Today
High -- | Low -- °F
--% Chance of Precip.
Yesterday
High -- | Low -- °F
Precip. -- in
8:49 AM 9:42 PM
Last Quarter, 45% visible
Pressure 29.60 in
Visibility 10.0 miles
Clouds Overcast 600 ft
Windchill 38 °F
Dew Point 41 °F
Humidity 87%
Rainfall 0.37 in
Snow Depth 1 in , 0 in , 0 in
UV 0 out of 12
Pollen Not available.
Air Quality Not available.
Flu Activity Not available.
METAR PASA 161516Z AUTO 04013G16KT 10SM OVC006 07/05 A2960 RMK AO1

More Conditions Fewer Conditions

Pressure 29.60 in
Visibility 10.0 miles
Clouds Overcast 600 ft
Windchill 38 °F
Dew Point 41 °F
Humidity 87%
Rainfall 0.37 in
Snow Depth 1 in , 0 in , 0 in
UV 0 out of 12
Pollen Not available.
Air Quality Not available.
Flu Activity Not available.
METAR PASA 161516Z AUTO 04013G16KT 10SM OVC006 07/05 A2960 RMK AO1

More Conditions Fewer Conditions

10-Day Weather Forecast

Almanac

Astronomy

Sep. 16, 2014 Rise Set
Actual Time 8:49 AM AKDT 9:42 PM AKDT
Civil Twilight 8:01 AM AKDT 10:30 PM AKDT
Nautical Twilight 7:01 AM AKDT 11:29 PM AKDT
Astronomical Twilight 5:49 AM AKDT 12:40 AM AKDT
Moon 12:36 AM AKDT 6:48 PM AKDT
Length of Visible Light 14h 29m
Length of Day
12h 53m
Tomorrow will be 6m 18s shorter.
Last Quarter, 45% of the Moon is Illuminated
Today
Last Quarter
Sep 24
New
Oct 1
First Quarter
Oct 8
Full
Oct 15
Last Quarter

Today's Extremes

State Highs State Lows

Community

WunderPhotos

Upload Photos

1,753,807 photos uploaded!

Nearby

Snow Depth

Station Depth Elevation
Mcneil Canyon 1 in 1320 ft
Fort Yukon 0 in 430 ft
Grandview 0 in 1100 ft
Turnagain Pass 2 in 1880 ft
Point Mackenzie 1 in 200 ft

Earthquake Activity

City Distance Mag. Time & Date
No recent earthquake activity has been reported nearby.
Minimum magnitude displayed is 2.5.

Coastal Water Temperatures

Place Temperature
No Stations Reporting

Nearby Weather Stations